sensor_id;sensor_type;location;lat;lon;timestamp;P1;durP1;ratioP1;P2;durP2;ratioP2
19679;SDS011;9989;48.962;9.182;2023-09-08T00:00:55;9.77;;;5.73;;
19679;SDS011;9989;48.962;9.182;2023-09-08T00:03:21;13.87;;;5.83;;
19679;SDS011;9989;48.962;9.182;2023-09-08T00:05:46;11.50;;;6.53;;
19679;SDS011;9989;48.962;9.182;2023-09-08T00:08:12;11.30;;;6.50;;
19679;SDS011;9989;48.962;9.182;2023-09-08T00:10:38;10.37;;;5.70;;
19679;SDS011;9989;48.962;9.182;2023-09-08T00:13:03;12.13;;;6.20;;
19679;SDS011;9989;48.962;9.182;2023-09-08T00:15:29;10.80;;;6.43;;
19679;SDS011;9989;48.962;9.182;2023-09-08T00:17:54;9.73;;;6.07;;
19679;SDS011;9989;48.962;9.182;2023-09-08T00:20:22;10.53;;;6.50;;
19679;SDS011;9989;48.962;9.182;2023-09-08T00:22:47;10.87;;;6.13;;
19679;SDS011;9989;48.962;9.182;2023-09-08T00:25:13;9.63;;;5.83;;
19679;SDS011;9989;48.962;9.182;2023-09-08T00:27:38;10.33;;;5.80;;
19679;SDS011;9989;48.962;9.182;2023-09-08T00:30:04;10.07;;;5.93;;
19679;SDS011;9989;48.962;9.182;2023-09-08T00:32:31;10.50;;;6.03;;
19679;SDS011;9989;48.962;9.182;2023-09-08T00:34:56;10.47;;;5.93;;
19679;SDS011;9989;48.962;9.182;2023-09-08T00:37:22;11.10;;;6.13;;
19679;SDS011;9989;48.962;9.182;2023-09-08T00:39:47;10.77;;;6.50;;
19679;SDS011;9989;48.962;9.182;2023-09-08T00:42:13;11.00;;;6.13;;
19679;SDS011;9989;48.962;9.182;2023-09-08T00:44:38;10.77;;;6.50;;
19679;SDS011;9989;48.962;9.182;2023-09-08T00:47:04;10.53;;;5.97;;
19679;SDS011;9989;48.962;9.182;2023-09-08T00:49:30;12.67;;;5.77;;
19679;SDS011;9989;48.962;9.182;2023-09-08T00:51:55;9.63;;;5.97;;
19679;SDS011;9989;48.962;9.182;2023-09-08T00:54:21;10.20;;;5.93;;
19679;SDS011;9989;48.962;9.182;2023-09-08T00:56:47;10.03;;;5.80;;
19679;SDS011;9989;48.962;9.182;2023-09-08T00:59:15;10.27;;;6.27;;
19679;SDS011;9989;48.962;9.182;2023-09-08T01:01:40;9.40;;;5.90;;
19679;SDS011;9989;48.962;9.182;2023-09-08T01:04:06;10.30;;;6.17;;
19679;SDS011;9989;48.962;9.182;2023-09-08T01:06:32;10.27;;;5.90;;
19679;SDS011;9989;48.962;9.182;2023-09-08T01:08:57;10.60;;;6.03;;
19679;SDS011;9989;48.962;9.182;2023-09-08T01:11:24;10.13;;;5.63;;
19679;SDS011;9989;48.962;9.182;2023-09-08T01:13:51;11.80;;;6.63;;
19679;SDS011;9989;48.962;9.182;2023-09-08T01:16:16;10.50;;;5.83;;
19679;SDS011;9989;48.962;9.182;2023-09-08T01:18:42;10.03;;;6.03;;
19679;SDS011;9989;48.962;9.182;2023-09-08T01:26:37;11.73;;;6.07;;
19679;SDS011;9989;48.962;9.182;2023-09-08T01:29:06;10.47;;;5.83;;
19679;SDS011;9989;48.962;9.182;2023-09-08T01:31:33;10.57;;;6.03;;
19679;SDS011;9989;48.962;9.182;2023-09-08T01:33:59;11.40;;;6.27;;
19679;SDS011;9989;48.962;9.182;2023-09-08T01:36:26;10.33;;;6.00;;
19679;SDS011;9989;48.962;9.182;2023-09-08T01:38:52;11.13;;;6.10;;
19679;SDS011;9989;48.962;9.182;2023-09-08T01:41:17;10.57;;;6.33;;
19679;SDS011;9989;48.962;9.182;2023-09-08T01:43:43;9.30;;;5.53;;
19679;SDS011;9989;48.962;9.182;2023-09-08T01:46:08;13.40;;;6.87;;
19679;SDS011;9989;48.962;9.182;2023-09-08T01:48:34;12.87;;;7.13;;
19679;SDS011;9989;48.962;9.182;2023-09-08T01:50:59;11.27;;;6.20;;
19679;SDS011;9989;48.962;9.182;2023-09-08T01:53:25;10.87;;;6.70;;
19679;SDS011;9989;48.962;9.182;2023-09-08T01:55:50;10.93;;;6.33;;
19679;SDS011;9989;48.962;9.182;2023-09-08T01:58:16;13.03;;;5.77;;
19679;SDS011;9989;48.962;9.182;2023-09-08T02:00:41;11.10;;;6.70;;
19679;SDS011;9989;48.962;9.182;2023-09-08T02:03:07;12.40;;;6.07;;
19679;SDS011;9989;48.962;9.182;2023-09-08T02:05:32;10.17;;;6.37;;
19679;SDS011;9989;48.962;9.182;2023-09-08T02:08:14;11.67;;;6.70;;
19679;SDS011;9989;48.962;9.182;2023-09-08T02:10:40;11.83;;;6.70;;
19679;SDS011;9989;48.962;9.182;2023-09-08T02:13:06;11.37;;;6.37;;
19679;SDS011;9989;48.962;9.182;2023-09-08T02:15:32;12.97;;;6.70;;
19679;SDS011;9989;48.962;9.182;2023-09-08T02:18:00;10.30;;;6.23;;
19679;SDS011;9989;48.962;9.182;2023-09-08T02:20:25;12.80;;;7.07;;
19679;SDS011;9989;48.962;9.182;2023-09-08T02:22:53;10.87;;;6.37;;
19679;SDS011;9989;48.962;9.182;2023-09-08T02:25:19;10.47;;;5.97;;
19679;SDS011;9989;48.962;9.182;2023-09-08T02:27:45;10.13;;;6.37;;
19679;SDS011;9989;48.962;9.182;2023-09-08T02:30:11;12.30;;;7.13;;
19679;SDS011;9989;48.962;9.182;2023-09-08T02:32:36;11.03;;;6.77;;
19679;SDS011;9989;48.962;9.182;2023-09-08T02:35:02;10.60;;;6.37;;
19679;SDS011;9989;48.962;9.182;2023-09-08T02:37:28;11.83;;;6.27;;
19679;SDS011;9989;48.962;9.182;2023-09-08T02:39:53;11.13;;;6.53;;
19679;SDS011;9989;48.962;9.182;2023-09-08T02:42:19;11.33;;;6.60;;
19679;SDS011;9989;48.962;9.182;2023-09-08T02:44:44;12.27;;;6.53;;
19679;SDS011;9989;48.962;9.182;2023-09-08T02:47:10;10.93;;;6.50;;
19679;SDS011;9989;48.962;9.182;2023-09-08T02:49:35;11.13;;;6.43;;
19679;SDS011;9989;48.962;9.182;2023-09-08T02:52:01;11.93;;;6.63;;
19679;SDS011;9989;48.962;9.182;2023-09-08T02:54:27;12.30;;;6.93;;
19679;SDS011;9989;48.962;9.182;2023-09-08T02:56:52;17.23;;;7.27;;
19679;SDS011;9989;48.962;9.182;2023-09-08T02:59:18;11.47;;;6.90;;
19679;SDS011;9989;48.962;9.182;2023-09-08T03:01:43;11.30;;;6.30;;
19679;SDS011;9989;48.962;9.182;2023-09-08T03:04:09;10.23;;;5.93;;
19679;SDS011;9989;48.962;9.182;2023-09-08T03:06:34;10.53;;;6.13;;
19679;SDS011;9989;48.962;9.182;2023-09-08T03:09:00;11.63;;;6.60;;
19679;SDS011;9989;48.962;9.182;2023-09-08T03:11:25;11.50;;;6.00;;
19679;SDS011;9989;48.962;9.182;2023-09-08T03:13:51;11.97;;;6.97;;
19679;SDS011;9989;48.962;9.182;2023-09-08T03:16:17;10.30;;;6.13;;
19679;SDS011;9989;48.962;9.182;2023-09-08T03:18:42;12.07;;;6.50;;
19679;SDS011;9989;48.962;9.182;2023-09-08T03:21:08;11.90;;;6.70;;
19679;SDS011;9989;48.962;9.182;2023-09-08T03:23:43;12.20;;;6.80;;
19679;SDS011;9989;48.962;9.182;2023-09-08T03:26:11;12.70;;;6.60;;
19679;SDS011;9989;48.962;9.182;2023-09-08T03:28:37;13.37;;;7.40;;
19679;SDS011;9989;48.962;9.182;2023-09-08T03:31:06;12.03;;;6.73;;
19679;SDS011;9989;48.962;9.182;2023-09-08T03:33:32;12.40;;;6.77;;
19679;SDS011;9989;48.962;9.182;2023-09-08T03:35:57;14.83;;;7.30;;
19679;SDS011;9989;48.962;9.182;2023-09-08T03:38:23;12.40;;;6.33;;
19679;SDS011;9989;48.962;9.182;2023-09-08T03:40:48;11.63;;;6.97;;
19679;SDS011;9989;48.962;9.182;2023-09-08T03:43:14;11.97;;;6.67;;
19679;SDS011;9989;48.962;9.182;2023-09-08T03:45:40;12.53;;;6.70;;
19679;SDS011;9989;48.962;9.182;2023-09-08T03:48:06;11.13;;;6.97;;
19679;SDS011;9989;48.962;9.182;2023-09-08T03:50:32;12.53;;;5.97;;
19679;SDS011;9989;48.962;9.182;2023-09-08T03:52:57;10.27;;;6.20;;
19679;SDS011;9989;48.962;9.182;2023-09-08T03:55:23;11.80;;;6.87;;
19679;SDS011;9989;48.962;9.182;2023-09-08T03:57:49;11.27;;;6.17;;
19679;SDS011;9989;48.962;9.182;2023-09-08T04:00:14;11.80;;;6.60;;
19679;SDS011;9989;48.962;9.182;2023-09-08T04:02:46;11.90;;;6.93;;
19679;SDS011;9989;48.962;9.182;2023-09-08T04:05:12;12.10;;;7.03;;
19679;SDS011;9989;48.962;9.182;2023-09-08T04:07:37;13.60;;;6.77;;
19679;SDS011;9989;48.962;9.182;2023-09-08T04:10:03;14.53;;;6.80;;
19679;SDS011;9989;48.962;9.182;2023-09-08T04:12:29;11.83;;;6.90;;
19679;SDS011;9989;48.962;9.182;2023-09-08T04:14:55;11.17;;;6.70;;
19679;SDS011;9989;48.962;9.182;2023-09-08T04:17:20;11.03;;;6.00;;
19679;SDS011;9989;48.962;9.182;2023-09-08T04:19:46;11.00;;;6.37;;
19679;SDS011;9989;48.962;9.182;2023-09-08T04:22:11;10.80;;;6.53;;
19679;SDS011;9989;48.962;9.182;2023-09-08T04:24:37;11.80;;;6.67;;
19679;SDS011;9989;48.962;9.182;2023-09-08T04:27:03;11.17;;;6.63;;
19679;SDS011;9989;48.962;9.182;2023-09-08T04:29:29;10.93;;;6.37;;
19679;SDS011;9989;48.962;9.182;2023-09-08T04:31:54;12.43;;;6.17;;
19679;SDS011;9989;48.962;9.182;2023-09-08T04:34:20;10.37;;;6.20;;
19679;SDS011;9989;48.962;9.182;2023-09-08T04:36:46;12.77;;;7.13;;
19679;SDS011;9989;48.962;9.182;2023-09-08T04:39:11;10.40;;;6.40;;
19679;SDS011;9989;48.962;9.182;2023-09-08T04:41:37;11.83;;;6.87;;
19679;SDS011;9989;48.962;9.182;2023-09-08T04:44:03;12.10;;;7.37;;
19679;SDS011;9989;48.962;9.182;2023-09-08T04:46:29;12.20;;;7.47;;
19679;SDS011;9989;48.962;9.182;2023-09-08T04:48:55;13.07;;;7.57;;
19679;SDS011;9989;48.962;9.182;2023-09-08T04:51:21;13.53;;;7.10;;
19679;SDS011;9989;48.962;9.182;2023-09-08T04:53:46;13.03;;;7.00;;
19679;SDS011;9989;48.962;9.182;2023-09-08T04:56:13;13.47;;;7.23;;
19679;SDS011;9989;48.962;9.182;2023-09-08T04:58:39;12.73;;;7.20;;
19679;SDS011;9989;48.962;9.182;2023-09-08T05:01:04;12.20;;;7.13;;
19679;SDS011;9989;48.962;9.182;2023-09-08T05:03:30;12.07;;;6.70;;
19679;SDS011;9989;48.962;9.182;2023-09-08T05:05:56;10.93;;;6.57;;
19679;SDS011;9989;48.962;9.182;2023-09-08T05:08:22;12.70;;;6.90;;
19679;SDS011;9989;48.962;9.182;2023-09-08T05:10:47;10.80;;;6.30;;
19679;SDS011;9989;48.962;9.182;2023-09-08T05:13:13;11.77;;;6.80;;
19679;SDS011;9989;48.962;9.182;2023-09-08T05:15:38;12.53;;;7.17;;
19679;SDS011;9989;48.962;9.182;2023-09-08T05:18:04;13.90;;;7.23;;
19679;SDS011;9989;48.962;9.182;2023-09-08T05:20:30;11.90;;;6.93;;
19679;SDS011;9989;48.962;9.182;2023-09-08T05:22:55;12.30;;;6.13;;
19679;SDS011;9989;48.962;9.182;2023-09-08T05:25:21;11.23;;;6.93;;
19679;SDS011;9989;48.962;9.182;2023-09-08T05:27:47;13.43;;;6.90;;
19679;SDS011;9989;48.962;9.182;2023-09-08T05:30:14;12.23;;;7.20;;
19679;SDS011;9989;48.962;9.182;2023-09-08T05:32:39;13.37;;;7.07;;
19679;SDS011;9989;48.962;9.182;2023-09-08T05:35:05;12.67;;;7.10;;
19679;SDS011;9989;48.962;9.182;2023-09-08T05:37:30;12.63;;;6.87;;
19679;SDS011;9989;48.962;9.182;2023-09-08T05:39:56;14.03;;;7.67;;
19679;SDS011;9989;48.962;9.182;2023-09-08T05:42:21;14.30;;;7.27;;
19679;SDS011;9989;48.962;9.182;2023-09-08T05:44:47;14.20;;;7.17;;
19679;SDS011;9989;48.962;9.182;2023-09-08T05:47:13;14.10;;;6.80;;
19679;SDS011;9989;48.962;9.182;2023-09-08T05:49:38;14.60;;;7.50;;
19679;SDS011;9989;48.962;9.182;2023-09-08T05:52:04;12.97;;;7.10;;
19679;SDS011;9989;48.962;9.182;2023-09-08T05:54:30;15.13;;;7.87;;
19679;SDS011;9989;48.962;9.182;2023-09-08T05:56:55;14.33;;;7.67;;
19679;SDS011;9989;48.962;9.182;2023-09-08T05:59:21;12.37;;;6.83;;
19679;SDS011;9989;48.962;9.182;2023-09-08T06:01:46;12.00;;;6.87;;
19679;SDS011;9989;48.962;9.182;2023-09-08T06:04:12;13.13;;;7.70;;
19679;SDS011;9989;48.962;9.182;2023-09-08T06:06:38;13.87;;;7.80;;
19679;SDS011;9989;48.962;9.182;2023-09-08T06:09:04;12.90;;;7.43;;
19679;SDS011;9989;48.962;9.182;2023-09-08T06:11:31;12.97;;;7.73;;
19679;SDS011;9989;48.962;9.182;2023-09-08T06:13:56;15.40;;;7.87;;
19679;SDS011;9989;48.962;9.182;2023-09-08T06:16:24;13.23;;;8.00;;
19679;SDS011;9989;48.962;9.182;2023-09-08T06:18:50;13.97;;;7.50;;
19679;SDS011;9989;48.962;9.182;2023-09-08T06:21:15;14.57;;;7.70;;
19679;SDS011;9989;48.962;9.182;2023-09-08T06:23:41;12.30;;;7.20;;
19679;SDS011;9989;48.962;9.182;2023-09-08T06:26:07;12.60;;;7.87;;
19679;SDS011;9989;48.962;9.182;2023-09-08T06:28:32;13.23;;;8.00;;
19679;SDS011;9989;48.962;9.182;2023-09-08T06:30:58;12.53;;;7.37;;
19679;SDS011;9989;48.962;9.182;2023-09-08T06:33:24;18.27;;;7.83;;
19679;SDS011;9989;48.962;9.182;2023-09-08T06:35:49;13.53;;;8.47;;
19679;SDS011;9989;48.962;9.182;2023-09-08T06:38:15;15.30;;;8.97;;
19679;SDS011;9989;48.962;9.182;2023-09-08T06:40:41;13.20;;;8.13;;
19679;SDS011;9989;48.962;9.182;2023-09-08T06:43:06;14.03;;;8.07;;
19679;SDS011;9989;48.962;9.182;2023-09-08T06:45:32;14.20;;;7.67;;
19679;SDS011;9989;48.962;9.182;2023-09-08T06:47:58;13.10;;;7.80;;
19679;SDS011;9989;48.962;9.182;2023-09-08T06:50:24;14.40;;;8.30;;
19679;SDS011;9989;48.962;9.182;2023-09-08T06:52:51;16.67;;;8.43;;
19679;SDS011;9989;48.962;9.182;2023-09-08T06:55:17;11.93;;;7.53;;
19679;SDS011;9989;48.962;9.182;2023-09-08T06:57:43;12.33;;;8.00;;
19679;SDS011;9989;48.962;9.182;2023-09-08T07:00:09;19.10;;;8.60;;
19679;SDS011;9989;48.962;9.182;2023-09-08T07:02:38;13.63;;;8.17;;
19679;SDS011;9989;48.962;9.182;2023-09-08T07:05:04;12.63;;;7.47;;
19679;SDS011;9989;48.962;9.182;2023-09-08T07:07:36;15.50;;;8.40;;
19679;SDS011;9989;48.962;9.182;2023-09-08T07:10:02;13.40;;;8.17;;
19679;SDS011;9989;48.962;9.182;2023-09-08T07:12:30;14.87;;;8.23;;
19679;SDS011;9989;48.962;9.182;2023-09-08T07:14:56;15.90;;;8.30;;
19679;SDS011;9989;48.962;9.182;2023-09-08T07:17:22;13.77;;;7.80;;
19679;SDS011;9989;48.962;9.182;2023-09-08T07:19:48;13.40;;;8.00;;
19679;SDS011;9989;48.962;9.182;2023-09-08T07:22:14;12.87;;;7.80;;
19679;SDS011;9989;48.962;9.182;2023-09-08T07:24:40;17.67;;;8.33;;
19679;SDS011;9989;48.962;9.182;2023-09-08T07:27:05;11.40;;;7.47;;
19679;SDS011;9989;48.962;9.182;2023-09-08T07:29:31;13.80;;;8.20;;
19679;SDS011;9989;48.962;9.182;2023-09-08T07:31:57;12.80;;;7.67;;
19679;SDS011;9989;48.962;9.182;2023-09-08T07:34:23;15.63;;;8.43;;
19679;SDS011;9989;48.962;9.182;2023-09-08T07:36:48;13.83;;;7.43;;
19679;SDS011;9989;48.962;9.182;2023-09-08T07:39:14;13.17;;;7.60;;
19679;SDS011;9989;48.962;9.182;2023-09-08T07:41:39;12.97;;;8.07;;
19679;SDS011;9989;48.962;9.182;2023-09-08T07:44:05;12.57;;;7.83;;
19679;SDS011;9989;48.962;9.182;2023-09-08T07:46:32;13.17;;;7.67;;
19679;SDS011;9989;48.962;9.182;2023-09-08T07:48:58;11.97;;;7.33;;
19679;SDS011;9989;48.962;9.182;2023-09-08T07:51:24;12.00;;;6.90;;
19679;SDS011;9989;48.962;9.182;2023-09-08T07:53:51;12.27;;;7.77;;
19679;SDS011;9989;48.962;9.182;2023-09-08T07:56:18;11.27;;;7.30;;
19679;SDS011;9989;48.962;9.182;2023-09-08T07:58:43;11.07;;;6.83;;
19679;SDS011;9989;48.962;9.182;2023-09-08T08:01:09;11.30;;;6.73;;
19679;SDS011;9989;48.962;9.182;2023-09-08T08:03:35;11.33;;;6.53;;
19679;SDS011;9989;48.962;9.182;2023-09-08T08:06:01;12.60;;;7.27;;
19679;SDS011;9989;48.962;9.182;2023-09-08T08:08:26;12.33;;;7.30;;
19679;SDS011;9989;48.962;9.182;2023-09-08T08:10:52;12.03;;;6.97;;
19679;SDS011;9989;48.962;9.182;2023-09-08T08:13:17;10.53;;;6.33;;
19679;SDS011;9989;48.962;9.182;2023-09-08T08:15:44;11.80;;;7.10;;
19679;SDS011;9989;48.962;9.182;2023-09-08T08:18:12;10.40;;;6.07;;
19679;SDS011;9989;48.962;9.182;2023-09-08T08:20:37;11.07;;;6.93;;
19679;SDS011;9989;48.962;9.182;2023-09-08T08:23:04;11.77;;;6.27;;
19679;SDS011;9989;48.962;9.182;2023-09-08T08:25:30;12.33;;;6.57;;
19679;SDS011;9989;48.962;9.182;2023-09-08T08:27:56;13.83;;;6.73;;
19679;SDS011;9989;48.962;9.182;2023-09-08T08:30:23;12.77;;;7.37;;
19679;SDS011;9989;48.962;9.182;2023-09-08T08:32:49;13.20;;;7.10;;
19679;SDS011;9989;48.962;9.182;2023-09-08T08:35:16;10.03;;;6.23;;
19679;SDS011;9989;48.962;9.182;2023-09-08T08:37:42;12.20;;;6.83;;
19679;SDS011;9989;48.962;9.182;2023-09-08T08:40:09;13.53;;;7.37;;
19679;SDS011;9989;48.962;9.182;2023-09-08T08:42:37;12.20;;;7.23;;
19679;SDS011;9989;48.962;9.182;2023-09-08T08:45:03;11.90;;;7.03;;
19679;SDS011;9989;48.962;9.182;2023-09-08T08:47:29;11.50;;;6.90;;
19679;SDS011;9989;48.962;9.182;2023-09-08T08:49:55;13.17;;;7.57;;
19679;SDS011;9989;48.962;9.182;2023-09-08T08:52:23;12.03;;;6.77;;
19679;SDS011;9989;48.962;9.182;2023-09-08T08:54:50;11.47;;;6.70;;
19679;SDS011;9989;48.962;9.182;2023-09-08T08:57:15;10.87;;;6.27;;
19679;SDS011;9989;48.962;9.182;2023-09-08T08:59:41;12.63;;;6.77;;
19679;SDS011;9989;48.962;9.182;2023-09-08T09:02:07;12.93;;;7.20;;
19679;SDS011;9989;48.962;9.182;2023-09-08T09:04:36;9.33;;;5.83;;
19679;SDS011;9989;48.962;9.182;2023-09-08T09:07:02;13.93;;;6.90;;
19679;SDS011;9989;48.962;9.182;2023-09-08T09:09:29;11.53;;;6.27;;
19679;SDS011;9989;48.962;9.182;2023-09-08T09:11:54;11.07;;;6.70;;
19679;SDS011;9989;48.962;9.182;2023-09-08T09:14:20;12.53;;;6.30;;
19679;SDS011;9989;48.962;9.182;2023-09-08T09:16:48;11.60;;;6.60;;
19679;SDS011;9989;48.962;9.182;2023-09-08T09:19:23;9.27;;;6.20;;
19679;SDS011;9989;48.962;9.182;2023-09-08T09:21:56;11.43;;;6.73;;
19679;SDS011;9989;48.962;9.182;2023-09-08T09:24:30;13.97;;;7.50;;
19679;SDS011;9989;48.962;9.182;2023-09-08T09:26:57;11.00;;;6.70;;
19679;SDS011;9989;48.962;9.182;2023-09-08T09:29:23;14.83;;;8.03;;
19679;SDS011;9989;48.962;9.182;2023-09-08T09:32:04;14.07;;;7.47;;
19679;SDS011;9989;48.962;9.182;2023-09-08T09:34:32;10.63;;;6.63;;
19679;SDS011;9989;48.962;9.182;2023-09-08T09:36:59;14.47;;;7.70;;
19679;SDS011;9989;48.962;9.182;2023-09-08T09:39:25;11.17;;;6.77;;
19679;SDS011;9989;48.962;9.182;2023-09-08T09:41:55;10.87;;;6.47;;
19679;SDS011;9989;48.962;9.182;2023-09-08T09:44:21;10.57;;;6.47;;
19679;SDS011;9989;48.962;9.182;2023-09-08T09:46:48;11.53;;;6.97;;
19679;SDS011;9989;48.962;9.182;2023-09-08T09:49:16;15.13;;;7.93;;
19679;SDS011;9989;48.962;9.182;2023-09-08T09:51:52;12.60;;;8.13;;
19679;SDS011;9989;48.962;9.182;2023-09-08T09:54:18;10.37;;;7.00;;
19679;SDS011;9989;48.962;9.182;2023-09-08T09:56:45;10.80;;;6.87;;
19679;SDS011;9989;48.962;9.182;2023-09-08T09:59:12;9.37;;;6.07;;
19679;SDS011;9989;48.962;9.182;2023-09-08T10:01:39;9.40;;;5.97;;
19679;SDS011;9989;48.962;9.182;2023-09-08T10:04:06;9.83;;;6.30;;
19679;SDS011;9989;48.962;9.182;2023-09-08T10:06:32;13.03;;;7.37;;
19679;SDS011;9989;48.962;9.182;2023-09-08T10:09:02;10.83;;;6.93;;
19679;SDS011;9989;48.962;9.182;2023-09-08T10:11:33;13.67;;;7.23;;
19679;SDS011;9989;48.962;9.182;2023-09-08T10:14:01;12.70;;;6.77;;
19679;SDS011;9989;48.962;9.182;2023-09-08T10:16:27;12.50;;;6.93;;
19679;SDS011;9989;48.962;9.182;2023-09-08T10:18:57;13.33;;;7.30;;
19679;SDS011;9989;48.962;9.182;2023-09-08T10:21:25;10.23;;;6.30;;
19679;SDS011;9989;48.962;9.182;2023-09-08T10:27:12;10.93;;;6.60;;
19679;SDS011;9989;48.962;9.182;2023-09-08T10:29:38;9.80;;;6.33;;
19679;SDS011;9989;48.962;9.182;2023-09-08T10:32:04;10.37;;;6.83;;
19679;SDS011;9989;48.962;9.182;2023-09-08T10:34:32;9.83;;;5.73;;
19679;SDS011;9989;48.962;9.182;2023-09-08T10:37:00;10.83;;;6.30;;
19679;SDS011;9989;48.962;9.182;2023-09-08T10:39:29;9.90;;;6.30;;
19679;SDS011;9989;48.962;9.182;2023-09-08T10:45:14;9.83;;;6.57;;
19679;SDS011;9989;48.962;9.182;2023-09-08T10:50:18;10.30;;;7.13;;
19679;SDS011;9989;48.962;9.182;2023-09-08T10:52:45;9.57;;;6.30;;
19679;SDS011;9989;48.962;9.182;2023-09-08T10:55:35;9.67;;;6.70;;
19679;SDS011;9989;48.962;9.182;2023-09-08T10:58:03;9.00;;;6.20;;
19679;SDS011;9989;48.962;9.182;2023-09-08T11:00:29;11.87;;;6.97;;
19679;SDS011;9989;48.962;9.182;2023-09-08T11:03:08;10.93;;;6.70;;
19679;SDS011;9989;48.962;9.182;2023-09-08T11:05:34;10.37;;;6.83;;
19679;SDS011;9989;48.962;9.182;2023-09-08T11:08:00;10.30;;;7.07;;
19679;SDS011;9989;48.962;9.182;2023-09-08T11:10:26;10.67;;;6.30;;
19679;SDS011;9989;48.962;9.182;2023-09-08T11:12:54;9.73;;;5.80;;
19679;SDS011;9989;48.962;9.182;2023-09-08T11:15:19;9.63;;;6.30;;
19679;SDS011;9989;48.962;9.182;2023-09-08T11:17:45;10.53;;;6.57;;
19679;SDS011;9989;48.962;9.182;2023-09-08T11:20:15;9.67;;;6.50;;
19679;SDS011;9989;48.962;9.182;2023-09-08T11:22:41;9.43;;;6.03;;
19679;SDS011;9989;48.962;9.182;2023-09-08T11:25:09;10.03;;;6.53;;
19679;SDS011;9989;48.962;9.182;2023-09-08T11:27:36;11.17;;;7.07;;
19679;SDS011;9989;48.962;9.182;2023-09-08T11:30:04;9.73;;;6.17;;
19679;SDS011;9989;48.962;9.182;2023-09-08T11:32:32;12.13;;;6.27;;
19679;SDS011;9989;48.962;9.182;2023-09-08T11:35:03;10.80;;;6.27;;
19679;SDS011;9989;48.962;9.182;2023-09-08T11:37:29;11.03;;;6.47;;
19679;SDS011;9989;48.962;9.182;2023-09-08T11:39:55;10.07;;;6.80;;
19679;SDS011;9989;48.962;9.182;2023-09-08T11:42:20;11.17;;;7.37;;
19679;SDS011;9989;48.962;9.182;2023-09-08T11:44:46;9.73;;;6.23;;
19679;SDS011;9989;48.962;9.182;2023-09-08T11:47:12;11.00;;;6.60;;
19679;SDS011;9989;48.962;9.182;2023-09-08T11:49:41;9.50;;;6.47;;
19679;SDS011;9989;48.962;9.182;2023-09-08T11:52:08;14.37;;;6.87;;
19679;SDS011;9989;48.962;9.182;2023-09-08T11:54:35;11.47;;;6.63;;
19679;SDS011;9989;48.962;9.182;2023-09-08T11:57:02;10.57;;;6.47;;
19679;SDS011;9989;48.962;9.182;2023-09-08T11:59:30;11.07;;;7.10;;
19679;SDS011;9989;48.962;9.182;2023-09-08T12:01:57;12.17;;;6.90;;
19679;SDS011;9989;48.962;9.182;2023-09-08T12:04:24;9.83;;;6.67;;
19679;SDS011;9989;48.962;9.182;2023-09-08T12:06:49;9.60;;;6.53;;
19679;SDS011;9989;48.962;9.182;2023-09-08T12:09:18;10.13;;;6.77;;
19679;SDS011;9989;48.962;9.182;2023-09-08T12:11:46;10.60;;;6.87;;
19679;SDS011;9989;48.962;9.182;2023-09-08T12:14:11;9.93;;;7.03;;
19679;SDS011;9989;48.962;9.182;2023-09-08T12:16:39;9.30;;;6.27;;
19679;SDS011;9989;48.962;9.182;2023-09-08T12:19:05;13.13;;;7.27;;
19679;SDS011;9989;48.962;9.182;2023-09-08T12:21:31;10.23;;;6.67;;
19679;SDS011;9989;48.962;9.182;2023-09-08T12:24:00;10.17;;;6.40;;
19679;SDS011;9989;48.962;9.182;2023-09-08T12:26:26;9.67;;;6.40;;
19679;SDS011;9989;48.962;9.182;2023-09-08T12:28:52;10.43;;;6.57;;
19679;SDS011;9989;48.962;9.182;2023-09-08T12:31:18;10.33;;;6.70;;
19679;SDS011;9989;48.962;9.182;2023-09-08T12:33:43;9.93;;;6.43;;
19679;SDS011;9989;48.962;9.182;2023-09-08T12:36:13;9.87;;;6.57;;
19679;SDS011;9989;48.962;9.182;2023-09-08T12:38:40;9.90;;;6.60;;
19679;SDS011;9989;48.962;9.182;2023-09-08T12:41:05;9.80;;;6.07;;
19679;SDS011;9989;48.962;9.182;2023-09-08T12:43:31;9.37;;;6.13;;
19679;SDS011;9989;48.962;9.182;2023-09-08T12:45:57;9.93;;;6.33;;
19679;SDS011;9989;48.962;9.182;2023-09-08T12:48:22;9.63;;;6.00;;
19679;SDS011;9989;48.962;9.182;2023-09-08T12:50:48;10.60;;;6.40;;
19679;SDS011;9989;48.962;9.182;2023-09-08T12:53:14;12.27;;;7.20;;
19679;SDS011;9989;48.962;9.182;2023-09-08T12:55:40;9.47;;;6.47;;
19679;SDS011;9989;48.962;9.182;2023-09-08T12:58:05;11.10;;;6.57;;
19679;SDS011;9989;48.962;9.182;2023-09-08T13:00:31;11.67;;;6.90;;
19679;SDS011;9989;48.962;9.182;2023-09-08T13:02:56;9.27;;;5.80;;
19679;SDS011;9989;48.962;9.182;2023-09-08T13:05:22;8.80;;;5.80;;
19679;SDS011;9989;48.962;9.182;2023-09-08T13:07:48;8.53;;;5.30;;
19679;SDS011;9989;48.962;9.182;2023-09-08T13:10:13;9.70;;;5.87;;
19679;SDS011;9989;48.962;9.182;2023-09-08T13:12:39;9.67;;;5.87;;
19679;SDS011;9989;48.962;9.182;2023-09-08T13:15:05;8.47;;;5.70;;
19679;SDS011;9989;48.962;9.182;2023-09-08T13:17:31;8.93;;;5.57;;
19679;SDS011;9989;48.962;9.182;2023-09-08T13:19:57;8.67;;;5.67;;
19679;SDS011;9989;48.962;9.182;2023-09-08T13:22:23;10.00;;;6.23;;
19679;SDS011;9989;48.962;9.182;2023-09-08T13:24:48;9.07;;;6.00;;
19679;SDS011;9989;48.962;9.182;2023-09-08T13:27:14;10.77;;;5.93;;
19679;SDS011;9989;48.962;9.182;2023-09-08T13:29:42;10.50;;;6.20;;
19679;SDS011;9989;48.962;9.182;2023-09-08T13:32:08;8.77;;;5.80;;
19679;SDS011;9989;48.962;9.182;2023-09-08T13:34:33;10.30;;;6.00;;
19679;SDS011;9989;48.962;9.182;2023-09-08T13:37:01;8.63;;;5.67;;
19679;SDS011;9989;48.962;9.182;2023-09-08T13:39:27;9.13;;;5.90;;
19679;SDS011;9989;48.962;9.182;2023-09-08T13:41:54;9.10;;;6.17;;
19679;SDS011;9989;48.962;9.182;2023-09-08T13:44:20;8.50;;;5.73;;
19679;SDS011;9989;48.962;9.182;2023-09-08T13:46:48;8.77;;;5.97;;
19679;SDS011;9989;48.962;9.182;2023-09-08T13:49:14;10.00;;;5.20;;
19679;SDS011;9989;48.962;9.182;2023-09-08T13:51:40;9.03;;;6.00;;
19679;SDS011;9989;48.962;9.182;2023-09-08T13:54:06;9.07;;;5.80;;
19679;SDS011;9989;48.962;9.182;2023-09-08T13:56:32;8.83;;;5.83;;
19679;SDS011;9989;48.962;9.182;2023-09-08T13:58:58;9.53;;;5.37;;
19679;SDS011;9989;48.962;9.182;2023-09-08T14:01:24;9.33;;;5.50;;
19679;SDS011;9989;48.962;9.182;2023-09-08T14:03:52;10.97;;;5.63;;
19679;SDS011;9989;48.962;9.182;2023-09-08T14:06:18;11.67;;;6.10;;
19679;SDS011;9989;48.962;9.182;2023-09-08T14:08:44;8.43;;;5.20;;
19679;SDS011;9989;48.962;9.182;2023-09-08T14:11:10;9.20;;;5.53;;
19679;SDS011;9989;48.962;9.182;2023-09-08T14:13:37;8.70;;;5.43;;
19679;SDS011;9989;48.962;9.182;2023-09-08T14:16:02;9.20;;;5.73;;
19679;SDS011;9989;48.962;9.182;2023-09-08T14:18:28;11.20;;;6.00;;
19679;SDS011;9989;48.962;9.182;2023-09-08T14:20:54;9.10;;;5.23;;
19679;SDS011;9989;48.962;9.182;2023-09-08T14:23:20;9.50;;;5.50;;
19679;SDS011;9989;48.962;9.182;2023-09-08T14:25:45;8.70;;;4.90;;
19679;SDS011;9989;48.962;9.182;2023-09-08T14:28:11;8.57;;;5.37;;
19679;SDS011;9989;48.962;9.182;2023-09-08T14:30:36;9.13;;;5.70;;
19679;SDS011;9989;48.962;9.182;2023-09-08T14:33:02;9.50;;;5.30;;
19679;SDS011;9989;48.962;9.182;2023-09-08T14:35:28;8.67;;;5.30;;
19679;SDS011;9989;48.962;9.182;2023-09-08T14:37:53;9.03;;;5.03;;
19679;SDS011;9989;48.962;9.182;2023-09-08T14:40:19;8.37;;;4.97;;
19679;SDS011;9989;48.962;9.182;2023-09-08T14:42:46;8.47;;;5.17;;
19679;SDS011;9989;48.962;9.182;2023-09-08T14:45:12;7.60;;;4.77;;
19679;SDS011;9989;48.962;9.182;2023-09-08T14:47:38;9.37;;;5.80;;
19679;SDS011;9989;48.962;9.182;2023-09-08T14:50:03;8.67;;;5.70;;
19679;SDS011;9989;48.962;9.182;2023-09-08T14:52:29;8.70;;;5.10;;
19679;SDS011;9989;48.962;9.182;2023-09-08T14:54:55;8.50;;;5.37;;
19679;SDS011;9989;48.962;9.182;2023-09-08T14:57:20;8.43;;;5.10;;
19679;SDS011;9989;48.962;9.182;2023-09-08T14:59:46;9.30;;;5.05;;